Terminal Aerodrome Forecast
Issued by NWS Paducah, KY

Home | Current Version | Previous Version | Text Only | Print | Product List | Glossary On
Versions: 1 2 3 4 5 6 7 8 9 10 11 12 13 14 15 16 17 18 19 20 21 22 23 24 25 26 27 28 29
775
FTUS43 KPAH 292237 AAD
TAFPAH
TAF AMD
KPAH 292237Z 2923/3018 36006KT P6SM VCTS SCT025CB BKN050
      TEMPO 3000/3002 2SM TSRA BR OVC015CB
     FM300200 VRB04KT P6SM SCT040 BKN100
     FM300600 00000KT 4SM BR SCT080
      TEMPO 3008/3012 2SM BR SCT005
     FM301500 29003KT P6SM SCT015 BKN050=

USA.gov is the U.S. government's official web portal to all federal, state and local government web resources and services.